Portada
METAR-TAF:

METAR-TAF

Aeropuertos :

Al-Hasa, Arabia Saudita

latitud: 25-18N, longitud: 049-29E, altitud: 179 m

Observación

El informe se hizo hace 40 minutos, a las 11:00 UTC
Viento 22 kt del norte-noroeste
Temperatura 25°C
Humedad 30%
Presión 1011 hPa
Visibilidad: 4000 m
Escasas nubes a una altura de 4000 ft
Nubes dispersas a una altura de 10000 ft
Ventisca alta de arena

METAR: OEAH 201100Z 33022KT 4000 BLSA FEW040 SCT100 25/06 Q1011 NOSIG

Hora: 14:40 (11:40 UTC)

Pronóstico

El informe se hizo hace 40 minutos, a las 11:00 UTC
Pronóstico válido del 20 a las 12 UTC al 21 a las 18 UTC
Viento 10 kt del noroeste con ráfagas de 20 kt
Visibilidad: 7000 m
Escasas nubes a una altura de 4000 ft
Temporalmente
del 20 a las 12 UTC al 20 a las 16 UTC
Visibilidad: 4000 m
Polvo extendido, Ventisca alta de polvo

TAF: OEAH 201100Z 2012/2118 32010G20KT 7000 FEW040 TEMPO 2012/2016 4000 DU BLDU

Observaciones y pronósticos meteorológicos de más de 4000 aeropuertos (mensajes METAR y TAF).

Los puntos amarillos y rojos representan las estaciones disponibles.

Ponga el ratón en el punto deseado para ver el nombre de la estación.

Haga clic para ver las observaciones y los pronósticos meteorológicos.

Para cambiar el mapa : haga clic en los botones verdes con una cruz de color negro para hacer un zoom, en el botón verde con un guión para alejar o en las flechas verdes para mapas adyacentes.


METAR-TAF: